createdAt,value
2024-02-01T00:00:23.608Z,2.03
2024-02-01T00:02:51.000Z,2.40
2024-02-01T00:05:21.226Z,2.17
2024-02-01T00:07:48.478Z,1.93
2024-02-01T00:10:15.676Z,1.83
2024-02-01T00:12:42.717Z,2.07
2024-02-01T00:15:10.763Z,1.80
2024-02-01T00:17:38.026Z,2.00
2024-02-01T00:20:09.068Z,1.70
2024-02-01T00:22:36.245Z,1.53
2024-02-01T00:25:06.780Z,1.60
2024-02-01T00:27:33.754Z,1.90
2024-02-01T00:30:02.621Z,1.87
2024-02-01T00:32:31.262Z,1.80
2024-02-01T00:34:58.397Z,1.80
2024-02-01T00:37:25.418Z,1.97
2024-02-01T00:39:52.646Z,1.20
2024-02-01T00:42:19.852Z,1.63
2024-02-01T00:44:46.963Z,1.37
2024-02-01T00:47:14.133Z,1.43
2024-02-01T00:49:41.407Z,1.50
2024-02-01T00:52:09.009Z,1.20
2024-02-01T00:54:38.344Z,1.50
2024-02-01T00:57:06.305Z,1.33
2024-02-01T00:59:33.614Z,1.30
2024-02-01T01:02:00.766Z,1.00
2024-02-01T01:04:30.395Z,1.40
2024-02-01T01:06:57.825Z,1.10
2024-02-01T01:09:24.803Z,1.20
2024-02-01T01:11:52.878Z,1.07
2024-02-01T01:14:22.655Z,0.77
2024-02-01T01:16:49.705Z,0.80
2024-02-01T01:19:17.209Z,1.20
2024-02-01T01:21:44.304Z,0.90
2024-02-01T01:24:11.710Z,1.10
2024-02-01T01:26:38.888Z,1.03
2024-02-01T01:29:06.211Z,1.10
2024-02-01T01:31:35.942Z,1.20
2024-02-01T01:34:05.634Z,1.10
2024-02-01T01:36:32.744Z,1.00
2024-02-01T01:39:01.607Z,0.97
2024-02-01T01:41:28.629Z,1.00
2024-02-01T01:43:55.673Z,0.87
2024-02-01T01:46:23.681Z,0.90
2024-02-01T01:48:53.868Z,0.83
2024-02-01T01:51:21.003Z,0.80
2024-02-01T01:53:49.661Z,0.83
2024-02-01T01:56:17.464Z,1.00
2024-02-01T01:58:46.321Z,1.10
2024-02-01T02:01:15.054Z,1.00
2024-02-01T02:03:45.061Z,1.10
2024-02-01T02:06:12.425Z,0.93
2024-02-01T02:08:39.688Z,0.90
2024-02-01T02:11:09.728Z,0.83
2024-02-01T02:13:36.733Z,1.00
2024-02-01T02:16:04.243Z,0.63
2024-02-01T02:18:31.240Z,1.00
2024-02-01T02:20:58.749Z,0.90
2024-02-01T02:23:25.933Z,0.77
2024-02-01T02:25:52.956Z,0.70
2024-02-01T02:28:19.980Z,0.93
2024-02-01T02:30:47.001Z,0.60
2024-02-01T02:33:14.518Z,0.83
2024-02-01T02:35:41.706Z,0.77
2024-02-01T02:38:08.701Z,1.00
2024-02-01T02:40:35.632Z,0.70
2024-02-01T02:43:02.700Z,0.80
2024-02-01T02:45:29.707Z,1.00
2024-02-01T02:47:59.095Z,0.73
2024-02-01T02:50:26.327Z,0.90
2024-02-01T02:52:55.240Z,0.80
2024-02-01T02:55:22.444Z,0.80
2024-02-01T02:57:49.948Z,1.10
2024-02-01T03:00:20.727Z,0.63
2024-02-01T03:02:51.744Z,1.00
2024-02-01T03:05:19.321Z,1.10
2024-02-01T03:07:46.334Z,0.90
2024-02-01T03:10:14.190Z,1.10
2024-02-01T03:12:41.788Z,1.13
2024-02-01T03:15:10.501Z,1.30
2024-02-01T03:17:39.363Z,1.13
2024-02-01T03:20:23.886Z,1.40
2024-02-01T03:22:56.118Z,1.33
2024-02-01T03:25:30.231Z,1.20
2024-02-01T03:28:03.327Z,1.30
2024-02-01T03:30:32.981Z,1.53
2024-02-01T03:33:04.923Z,1.30
2024-02-01T03:35:33.286Z,1.00
2024-02-01T03:38:02.024Z,1.43
2024-02-01T03:40:29.145Z,1.27
2024-02-01T03:42:56.360Z,1.20
2024-02-01T03:45:24.405Z,1.53
2024-02-01T03:47:51.955Z,1.60
2024-02-01T03:50:21.769Z,1.67
2024-02-01T03:52:48.738Z,1.70
2024-02-01T03:55:18.860Z,1.70
2024-02-01T03:57:47.131Z,1.40
2024-02-01T04:00:29.929Z,1.23
2024-02-01T04:02:59.329Z,1.40
2024-02-01T04:05:27.965Z,1.57
2024-02-01T04:07:55.470Z,1.40
2024-02-01T04:10:22.738Z,1.40
2024-02-01T04:12:49.949Z,1.40
2024-02-01T04:15:16.972Z,1.50
2024-02-01T04:17:45.265Z,1.73
2024-02-01T04:20:14.755Z,1.60
2024-02-01T04:22:43.072Z,1.80
2024-02-01T04:25:10.218Z,1.70
2024-02-01T04:27:37.631Z,1.50
2024-02-01T04:30:08.046Z,1.63
2024-02-01T04:32:36.029Z,1.40
2024-02-01T04:35:06.557Z,1.30
2024-02-01T04:37:33.810Z,1.50
2024-02-01T04:40:05.128Z,2.00
2024-02-01T04:42:32.685Z,1.53
2024-02-01T04:45:07.547Z,1.77
2024-02-01T04:47:36.281Z,1.37
2024-02-01T04:50:04.552Z,1.57
2024-02-01T04:52:32.432Z,1.50
2024-02-01T04:55:04.805Z,1.80
2024-02-01T04:57:32.680Z,1.43
2024-02-01T04:59:59.707Z,1.70
2024-02-01T05:02:26.909Z,1.90
2024-02-01T05:04:54.096Z,1.70
2024-02-01T05:07:21.679Z,1.60
2024-02-01T05:09:48.677Z,1.63
2024-02-01T05:12:15.974Z,1.50
2024-02-01T05:14:44.268Z,1.70
2024-02-01T05:17:11.395Z,1.27
2024-02-01T05:19:38.584Z,1.60
2024-02-01T05:22:08.604Z,2.33
2024-02-01T05:24:38.964Z,1.67
2024-02-01T05:27:09.912Z,1.77
2024-02-01T05:29:39.304Z,1.80
2024-02-01T05:32:09.781Z,1.80
2024-02-01T05:34:37.294Z,1.60
2024-02-01T05:37:04.817Z,1.50
2024-02-01T05:39:31.846Z,1.70
2024-02-01T05:42:06.189Z,1.70
2024-02-01T05:44:33.634Z,1.60
2024-02-01T05:47:00.687Z,1.20
2024-02-01T05:49:32.543Z,2.20
2024-02-01T05:52:04.816Z,1.77
2024-02-01T05:54:35.231Z,1.67
2024-02-01T05:57:05.676Z,1.50
2024-02-01T05:59:33.304Z,1.57
2024-02-01T06:02:00.643Z,1.30
2024-02-01T06:04:29.119Z,1.77
2024-02-01T06:06:56.872Z,1.80
2024-02-01T06:09:23.874Z,1.80
2024-02-01T06:11:51.000Z,1.83
2024-02-01T06:14:18.592Z,1.70
2024-02-01T06:16:46.222Z,1.67
2024-02-01T06:19:13.911Z,1.87
2024-02-01T06:21:42.856Z,1.50
2024-02-01T06:24:13.317Z,1.57
2024-02-01T06:26:40.831Z,1.07
2024-02-01T06:29:11.195Z,1.80
2024-02-01T06:31:39.841Z,1.50
2024-02-01T06:34:13.498Z,1.60
2024-02-01T06:36:52.117Z,2.00
2024-02-01T06:39:39.430Z,1.37
2024-02-01T06:42:16.026Z,1.60
2024-02-01T06:44:49.546Z,1.80
2024-02-01T06:47:25.529Z,1.90
2024-02-01T06:50:02.256Z,1.77
2024-02-01T06:52:41.694Z,1.37
2024-02-01T06:55:12.562Z,2.20
2024-02-01T06:57:50.387Z,1.70
2024-02-01T07:00:37.554Z,1.43
2024-02-01T07:03:14.959Z,1.43
2024-02-01T07:05:51.395Z,1.60
2024-02-01T07:08:41.979Z,1.63
2024-02-01T07:11:11.709Z,1.40
2024-02-01T07:13:59.520Z,1.60
2024-02-01T07:16:39.600Z,1.83
2024-02-01T07:19:16.487Z,1.40
2024-02-01T07:22:01.653Z,1.77
2024-02-01T07:25:00.698Z,1.50
2024-02-01T07:27:46.262Z,1.30
2024-02-01T07:30:31.936Z,1.53
2024-02-01T07:33:17.400Z,1.50
2024-02-01T07:36:03.075Z,1.30
2024-02-01T07:38:48.755Z,1.50
2024-02-01T07:41:34.400Z,1.30
2024-02-01T07:44:19.739Z,1.37
2024-02-01T07:47:05.389Z,1.27
2024-02-01T07:49:51.422Z,1.13
2024-02-01T07:52:37.255Z,1.23
2024-02-01T07:55:23.207Z,1.37
2024-02-01T07:57:55.875Z,1.10
2024-02-01T08:00:34.558Z,1.30
2024-02-01T08:03:13.462Z,1.70
2024-02-01T08:05:59.667Z,1.00
2024-02-01T08:08:27.112Z,1.30
2024-02-01T08:10:58.253Z,1.30
2024-02-01T08:13:26.143Z,1.37
2024-02-01T08:16:04.729Z,1.00
2024-02-01T08:18:38.767Z,1.60
2024-02-01T08:21:15.586Z,1.50
2024-02-01T08:23:43.498Z,1.33
2024-02-01T08:26:14.426Z,1.43
2024-02-01T08:28:41.495Z,1.17
2024-02-01T08:31:15.360Z,1.27
2024-02-01T08:33:45.620Z,1.27
2024-02-01T08:36:14.020Z,1.20
2024-02-01T08:38:44.137Z,1.17
2024-02-01T08:41:12.945Z,1.10
2024-02-01T08:43:42.412Z,1.30
2024-02-01T08:46:09.518Z,0.90
2024-02-01T08:48:41.061Z,1.30
2024-02-01T08:51:09.501Z,1.33
2024-02-01T08:53:44.545Z,1.13
2024-02-01T08:56:15.215Z,1.00
2024-02-01T08:58:43.940Z,1.20
2024-02-01T09:01:24.364Z,1.20
2024-02-01T09:03:52.352Z,1.20
2024-02-01T09:06:20.255Z,1.30
2024-02-01T09:08:47.412Z,1.37
2024-02-01T09:11:16.789Z,1.00
2024-02-01T09:13:51.101Z,1.50
2024-02-01T09:16:22.839Z,1.60
2024-02-01T09:18:51.150Z,0.90
2024-02-01T09:21:19.729Z,1.17
2024-02-01T09:23:47.226Z,1.10
2024-02-01T09:26:14.839Z,0.80
2024-02-01T09:28:42.969Z,1.03
2024-02-01T09:31:23.625Z,1.13
2024-02-01T09:33:52.334Z,0.80
2024-02-01T09:36:20.131Z,1.10
2024-02-01T09:38:47.849Z,1.10
2024-02-01T09:41:22.367Z,1.00
2024-02-01T09:43:51.287Z,0.93
2024-02-01T09:46:19.010Z,1.20
2024-02-01T09:48:54.235Z,1.53
2024-02-01T09:51:21.634Z,1.17
2024-02-01T09:53:52.438Z,1.00
2024-02-01T09:56:27.197Z,1.03
2024-02-01T09:58:57.103Z,1.07
2024-02-01T10:01:26.189Z,1.00
2024-02-01T10:03:54.047Z,1.07
2024-02-01T10:06:21.359Z,0.90
2024-02-01T10:08:54.861Z,1.17
2024-02-01T10:11:22.273Z,1.13
2024-02-01T10:13:49.673Z,1.13
2024-02-01T10:16:21.297Z,0.73
2024-02-01T10:18:55.517Z,0.70
2024-02-01T10:21:35.832Z,0.80
2024-02-01T10:24:08.837Z,1.13
2024-02-01T10:26:37.802Z,0.97
2024-02-01T10:29:07.728Z,0.80
2024-02-01T10:31:39.774Z,0.70
2024-02-01T10:34:12.873Z,0.70
2024-02-01T10:36:44.291Z,1.00
2024-02-01T10:39:20.635Z,0.90
2024-02-01T10:41:55.367Z,0.83
2024-02-01T10:44:34.720Z,0.73
2024-02-01T10:47:04.570Z,0.80
2024-02-01T10:49:37.624Z,1.07
2024-02-01T10:52:05.413Z,1.10
2024-02-01T10:54:33.447Z,0.60
2024-02-01T10:57:06.836Z,0.83
2024-02-01T10:59:35.196Z,0.77
2024-02-01T11:02:04.036Z,0.73
2024-02-01T11:04:38.729Z,0.87
2024-02-01T11:07:09.760Z,0.90
2024-02-01T11:09:43.750Z,1.00
2024-02-01T11:12:15.476Z,0.90
2024-02-01T11:14:42.693Z,0.77
2024-02-01T11:17:22.618Z,0.90
2024-02-01T11:19:54.240Z,0.83
2024-02-01T11:22:21.592Z,0.60
2024-02-01T11:25:07.530Z,0.90
2024-02-01T11:27:38.205Z,0.53
2024-02-01T11:30:21.367Z,0.60
2024-02-01T11:32:48.810Z,0.87
2024-02-01T11:35:18.965Z,0.60
2024-02-01T11:37:45.978Z,1.00
2024-02-01T11:40:20.086Z,0.90
2024-02-01T11:42:48.954Z,0.60
2024-02-01T11:45:18.286Z,0.70
2024-02-01T11:47:45.788Z,0.57
2024-02-01T11:50:12.999Z,0.60
2024-02-01T11:52:59.345Z,0.60
2024-02-01T11:55:31.295Z,0.60
2024-02-01T11:58:00.608Z,0.70
2024-02-01T12:00:39.453Z,0.60
2024-02-01T12:03:16.355Z,0.80
2024-02-01T12:05:47.155Z,0.60
2024-02-01T12:08:14.934Z,0.60
2024-02-01T12:10:47.456Z,0.57
2024-02-01T12:13:17.080Z,0.70
2024-02-01T12:15:53.406Z,0.43
2024-02-01T12:18:21.436Z,0.57
2024-02-01T12:20:49.479Z,0.50
2024-02-01T12:23:16.675Z,0.53
2024-02-01T12:25:48.638Z,0.70
2024-02-01T12:28:15.965Z,0.53
2024-02-01T12:30:45.859Z,0.50
2024-02-01T12:33:14.588Z,0.40
2024-02-01T12:35:45.993Z,0.60
2024-02-01T12:38:16.334Z,0.70
2024-02-01T12:40:46.634Z,0.50
2024-02-01T12:43:14.497Z,0.47
2024-02-01T12:45:48.227Z,0.50
2024-02-01T12:48:17.383Z,0.40
2024-02-01T12:50:47.946Z,0.50
2024-02-01T12:53:15.123Z,0.73
2024-02-01T12:55:42.318Z,0.40
2024-02-01T12:58:09.555Z,0.50
2024-02-01T13:00:36.812Z,0.50
2024-02-01T13:03:05.150Z,0.50
2024-02-01T13:05:32.228Z,0.73
2024-02-01T13:07:59.760Z,0.50
2024-02-01T13:10:26.702Z,0.43
2024-02-01T13:12:57.779Z,0.57
2024-02-01T13:15:28.554Z,0.50
2024-02-01T13:17:58.938Z,0.50
2024-02-01T13:20:27.836Z,0.60
2024-02-01T13:22:55.382Z,0.40
2024-02-01T13:25:22.730Z,0.50
2024-02-01T13:27:54.598Z,0.90
2024-02-01T13:30:28.159Z,0.87
2024-02-01T13:32:55.699Z,0.70
2024-02-01T13:35:26.819Z,0.60
2024-02-01T13:37:54.862Z,0.60
2024-02-01T13:40:22.066Z,0.70
2024-02-01T13:42:54.738Z,1.00
2024-02-01T13:45:24.481Z,0.70
2024-02-01T13:47:54.523Z,1.07
2024-02-01T13:50:28.878Z,0.70
2024-02-01T13:52:57.369Z,0.77
2024-02-01T13:55:27.087Z,0.70
2024-02-01T13:57:55.475Z,0.60
2024-02-01T14:00:23.333Z,0.63
2024-02-01T14:02:57.615Z,1.00
2024-02-01T14:05:26.183Z,0.90
2024-02-01T14:07:54.218Z,0.60
2024-02-01T14:10:22.243Z,0.60
2024-02-01T14:12:49.426Z,1.10
2024-02-01T14:15:16.969Z,0.60
2024-02-01T14:17:44.394Z,0.80
2024-02-01T14:20:15.475Z,0.60
2024-02-01T14:22:46.084Z,0.70
2024-02-01T14:25:15.112Z,0.60
2024-02-01T14:27:42.934Z,0.70
2024-02-01T14:30:18.175Z,0.50
2024-02-01T14:32:47.065Z,0.70
2024-02-01T14:35:16.965Z,0.80
2024-02-01T14:37:45.564Z,0.80
2024-02-01T14:40:14.318Z,0.50
2024-02-01T14:42:43.065Z,0.67
2024-02-01T14:45:10.770Z,0.60
2024-02-01T14:47:38.536Z,0.70
2024-02-01T14:50:09.120Z,0.40
2024-02-01T14:52:36.076Z,0.70
2024-02-01T14:55:05.093Z,0.77
2024-02-01T14:57:32.076Z,0.77
2024-02-01T14:59:59.346Z,0.60
2024-02-01T15:02:26.524Z,0.50
2024-02-01T15:04:55.356Z,0.60
2024-02-01T15:07:22.840Z,0.50
2024-02-01T15:09:50.094Z,0.57
2024-02-01T15:12:17.785Z,0.60
2024-02-01T15:14:45.622Z,0.53
2024-02-01T15:17:14.145Z,0.70
2024-02-01T15:19:44.345Z,0.70
2024-02-01T15:22:11.472Z,0.60
2024-02-01T15:24:39.965Z,0.70
2024-02-01T15:27:07.817Z,0.93
2024-02-01T15:29:35.679Z,0.80
2024-02-01T15:32:02.862Z,0.50
2024-02-01T15:34:31.840Z,0.67
2024-02-01T15:36:59.134Z,0.60
2024-02-01T15:39:28.420Z,0.80
2024-02-01T15:42:02.580Z,0.80
2024-02-01T15:44:29.830Z,0.50
2024-02-01T15:46:57.083Z,0.90
2024-02-01T15:49:28.393Z,0.67
2024-02-01T15:51:56.495Z,0.80
2024-02-01T15:54:24.078Z,0.70
2024-02-01T15:56:51.380Z,0.90
2024-02-01T15:59:20.573Z,1.00
2024-02-01T16:01:48.157Z,0.77
2024-02-01T16:04:15.707Z,0.83
2024-02-01T16:06:44.056Z,0.63
2024-02-01T16:09:14.052Z,0.70
2024-02-01T16:11:42.609Z,0.80
2024-02-01T16:14:24.464Z,0.67
2024-02-01T16:16:52.083Z,1.13
2024-02-01T16:19:35.379Z,0.93
2024-02-01T16:22:03.688Z,0.83
2024-02-01T16:24:57.655Z,0.90
2024-02-01T16:27:36.936Z,0.70
2024-02-01T16:30:22.904Z,0.70
2024-02-01T16:32:49.945Z,1.07
2024-02-01T16:35:53.866Z,1.17
2024-02-01T16:38:24.652Z,0.93
2024-02-01T16:40:53.401Z,0.97
2024-02-01T16:43:33.550Z,0.73
2024-02-01T16:46:00.612Z,0.87
2024-02-01T16:48:27.896Z,0.93
2024-02-01T16:50:55.184Z,0.80
2024-02-01T16:53:40.348Z,0.70
2024-02-01T16:56:10.781Z,0.90
2024-02-01T16:58:44.384Z,1.13
2024-02-01T17:01:44.822Z,0.93
2024-02-01T17:04:25.404Z,1.20
2024-02-01T17:06:53.888Z,1.00
2024-02-01T17:09:26.725Z,0.90
2024-02-01T17:11:55.953Z,1.17
2024-02-01T17:14:26.303Z,0.97
2024-02-01T17:17:08.297Z,1.20
2024-02-01T17:19:39.717Z,1.00
2024-02-01T17:22:14.580Z,1.10
2024-02-01T17:24:41.859Z,0.67
2024-02-01T17:27:09.951Z,1.00
2024-02-01T17:29:40.712Z,1.10
2024-02-01T17:32:11.443Z,0.80
2024-02-01T17:34:40.507Z,1.00
2024-02-01T17:37:24.227Z,0.90
2024-02-01T17:39:55.451Z,0.90
2024-02-01T17:42:33.804Z,1.23
2024-02-01T17:45:11.029Z,0.90
2024-02-01T17:47:38.104Z,0.97
2024-02-01T17:50:41.615Z,1.20
2024-02-01T17:53:10.800Z,1.10
2024-02-01T17:55:45.156Z,0.97
2024-02-01T17:58:43.333Z,1.30
2024-02-01T18:01:22.732Z,1.00
2024-02-01T18:03:55.014Z,1.20
2024-02-01T18:06:45.084Z,0.90
2024-02-01T18:09:28.910Z,1.50
2024-02-01T18:11:56.103Z,1.13
2024-02-01T18:14:23.180Z,1.20
2024-02-01T18:16:50.695Z,1.00
2024-02-01T18:19:23.045Z,1.13
2024-02-01T18:21:51.288Z,1.20
2024-02-01T18:24:39.842Z,1.40
2024-02-01T18:27:10.055Z,1.53
2024-02-01T18:29:46.219Z,0.90
2024-02-01T18:32:20.772Z,0.83
2024-02-01T18:34:49.377Z,1.00
2024-02-01T18:37:18.879Z,1.30
2024-02-01T18:39:51.960Z,1.23
2024-02-01T18:43:11.355Z,1.10
2024-02-01T18:45:44.920Z,1.13
2024-02-01T18:48:24.006Z,1.00
2024-02-01T18:50:51.871Z,0.87
2024-02-01T18:53:35.896Z,1.10
2024-02-01T18:56:04.801Z,1.23
2024-02-01T18:58:44.122Z,0.90
2024-02-01T19:01:21.352Z,1.00
2024-02-01T19:03:48.593Z,1.60
2024-02-01T19:06:31.465Z,1.20
2024-02-01T19:09:06.322Z,1.10
2024-02-01T19:11:45.071Z,1.30
2024-02-01T19:14:37.525Z,1.30
2024-02-01T19:17:16.667Z,0.87
2024-02-01T19:19:45.486Z,1.27
2024-02-01T19:22:36.682Z,1.50
2024-02-01T19:25:08.168Z,1.20
2024-02-01T19:27:41.066Z,0.97
2024-02-01T19:30:18.047Z,1.17
2024-02-01T19:32:53.397Z,1.53
2024-02-01T19:35:43.133Z,1.50
2024-02-01T19:38:18.024Z,1.10
2024-02-01T19:40:48.354Z,1.53
2024-02-01T19:43:18.611Z,1.00
2024-02-01T19:45:47.186Z,1.20
2024-02-01T19:48:15.420Z,1.10
2024-02-01T19:50:42.860Z,1.23
2024-02-01T19:53:10.649Z,1.37
2024-02-01T19:55:37.773Z,1.20
2024-02-01T19:58:05.028Z,1.20
2024-02-01T20:00:32.072Z,1.30
2024-02-01T20:03:01.562Z,1.50
2024-02-01T20:05:29.266Z,1.37
2024-02-01T20:07:56.315Z,1.37
2024-02-01T20:10:23.371Z,1.30
2024-02-01T20:12:50.510Z,1.27
2024-02-01T20:15:17.914Z,1.10
2024-02-01T20:17:45.398Z,1.40
2024-02-01T20:20:21.060Z,1.17
2024-02-01T20:22:48.754Z,1.40
2024-02-01T20:25:25.329Z,1.47
2024-02-01T20:27:56.250Z,1.30
2024-02-01T20:30:25.197Z,1.07
2024-02-01T20:32:56.369Z,1.23
2024-02-01T20:35:24.576Z,1.40
2024-02-01T20:38:09.839Z,1.20
2024-02-01T20:40:39.086Z,1.13
2024-02-01T20:43:14.915Z,1.37
2024-02-01T20:45:42.700Z,1.40
2024-02-01T20:48:23.759Z,1.40
2024-02-01T20:50:53.180Z,1.70
2024-02-01T20:53:20.312Z,1.50
2024-02-01T20:55:50.336Z,1.03
2024-02-01T20:58:35.734Z,1.00
2024-02-01T21:01:02.952Z,1.40
2024-02-01T21:03:30.727Z,1.30
2024-02-01T21:05:57.866Z,1.20
2024-02-01T21:08:34.576Z,1.20
2024-02-01T21:11:03.375Z,1.17
2024-02-01T21:13:33.793Z,1.20
2024-02-01T21:16:01.152Z,1.13
2024-02-01T21:18:35.709Z,1.03
2024-02-01T21:21:06.630Z,1.50
2024-02-01T21:23:51.761Z,1.17
2024-02-01T21:26:24.877Z,1.10
2024-02-01T21:29:01.468Z,1.00
2024-02-01T21:31:48.223Z,0.93
2024-02-01T21:34:18.313Z,1.37
2024-02-01T21:36:55.892Z,1.30
2024-02-01T21:39:45.784Z,1.10
2024-02-01T21:42:52.616Z,1.53
2024-02-01T21:45:27.974Z,1.17
2024-02-01T21:47:55.930Z,0.90
2024-02-01T21:50:24.395Z,1.10
2024-02-01T21:52:52.364Z,1.10
2024-02-01T21:55:19.555Z,0.93
2024-02-01T21:57:47.022Z,1.07
2024-02-01T22:00:14.856Z,1.40
2024-02-01T22:02:43.997Z,1.50
2024-02-01T22:05:12.352Z,1.20
2024-02-01T22:07:39.377Z,0.87
2024-02-01T22:10:06.811Z,1.20
2024-02-01T22:12:37.475Z,1.23
2024-02-01T22:15:07.268Z,1.10
2024-02-01T22:17:34.804Z,1.23
2024-02-01T22:20:02.455Z,0.73
2024-02-01T22:22:32.689Z,1.17
2024-02-01T22:24:59.948Z,1.10
2024-02-01T22:27:28.726Z,0.90
2024-02-01T22:29:57.668Z,1.13
2024-02-01T22:32:24.821Z,0.60
2024-02-01T22:34:52.052Z,1.10
2024-02-01T22:37:19.247Z,1.03
2024-02-01T22:39:49.572Z,1.03
2024-02-01T22:42:16.562Z,1.17
2024-02-01T22:44:43.803Z,0.67
2024-02-01T22:47:10.913Z,0.90
2024-02-01T22:49:38.395Z,0.90
2024-02-01T22:52:06.187Z,0.80
2024-02-01T22:54:33.743Z,1.23
2024-02-01T22:57:00.792Z,1.00
2024-02-01T22:59:28.923Z,1.10
2024-02-01T23:01:57.586Z,0.90
2024-02-01T23:04:24.822Z,0.70
2024-02-01T23:06:52.086Z,0.60
2024-02-01T23:09:20.696Z,0.90
2024-02-01T23:11:48.736Z,0.80
2024-02-01T23:14:15.962Z,0.90
2024-02-01T23:16:44.120Z,0.83
2024-02-01T23:19:11.480Z,0.80
2024-02-01T23:21:39.892Z,1.00
2024-02-01T23:24:07.348Z,1.00
2024-02-01T23:26:34.778Z,1.17
2024-02-01T23:29:03.704Z,0.70
2024-02-01T23:31:30.817Z,1.00
2024-02-01T23:33:58.104Z,0.70
2024-02-01T23:36:25.417Z,0.90
2024-02-01T23:38:52.703Z,0.70
2024-02-01T23:41:19.707Z,0.83
2024-02-01T23:43:46.817Z,0.67
2024-02-01T23:46:13.820Z,0.80
2024-02-01T23:48:40.991Z,0.63
2024-02-01T23:51:08.387Z,0.80
2024-02-01T23:53:35.635Z,0.90
2024-02-01T23:56:03.193Z,0.50
2024-02-01T23:58:30.307Z,0.93
